ラスベガス の空港の天気 - METARとTAF

マッカラン国際空港 ( KLAS / LAS ) - アメリカ合衆国 ネバダ州ラスベガス
飛行場実況気象(Metar)
観測時間01/19 16:56 PST (01/20 00:56 UTC)
風向・風速南西 4m/s
視程10km以上
天気現象
少しの雲 雲底高度 1220m
少しの雲 雲底高度 1830m
気温11.7℃
湿度50%
気圧1006.1hPa
METARKLAS 200056Z 23007KT 10SM FEW040 FEW060 12/02 A2973 RMK AO2 SLP061 T01170017
過去の天気等 Google飛行場航空写真 Wunderground天気予報

過去48時間のMETAR

飛行場予報(TAF)
発表時間: 1/19 15:38 PST (1/19 23:38 UTC)
予報対象時間: 19日16時 PST ~ 20日16時 PST
風向・風速西南西 6m/s 瞬間風速 10m/s
視程10km以上
天気現象周辺でしゅう雨
全天の4割程度の雲 雲底高度 1,520m
19日19時 PST から
風向・風速西 5m/s
視程10km以上
少しの雲 雲底高度 1,830m
20日1時 PST から
風向・風速南南西 4m/s
視程10km以上
全天の4割程度の雲 雲底高度 1,830m
全天の8割程度の雲 雲底高度 4,570m
20日10時 PST から
風向・風速南 6m/s 瞬間風速 11m/s
視程10km以上
天気現象弱いしゅう雨
全天の8割程度の雲 雲底高度 1,520m
全天を覆う雲 雲底高度 2,740m
KLAS 192338Z 2000/2024 25012G20KT P6SM VCSH SCT050
FM200300 27010KT P6SM FEW060
FM200900 20008KT P6SM SCT060 BKN150
FM201800 18012G22KT P6SM -SHRA BKN050 OVC090